Time;durP1;ratioP1;P1;durP2;ratioP2;P2;SDS_P1;SDS_P2;PMS_P1;PMS_P2;Temp;Humidity;BMP_temperature;BMP_pressure;BME280_temperature;BME280_humidity;BME280_pressure;Samples;Min_cycle;Max_cycle;Signal;HPM_P1;HPM_P2
2022/12/30 00:00:52;;;;;;;3.13;0.38;;;;;;;9.77;64.46;98985.75;5092970;29;20063;-72
2022/12/30 00:03:43;;;;;;;2.17;0.28;;;;;;;9.63;65.09;98981.66;5096698;29;20427;-72
2022/12/30 00:06:33;;;;;;;1.75;0.35;;;;;;;9.72;64.70;98982.66;5089110;29;20056;-71
2022/12/30 00:09:23;;;;;;;0.45;0.15;;;;;;;9.40;66.43;98989.88;5099753;29;20593;-72
2022/12/30 00:34:33;;;;;;;2.63;0.63;;;;;;;9.61;66.63;98992.41;5083368;29;20126;-71
2022/12/30 00:37:22;;;;;;;1.10;0.50;;;;;;;9.76;66.65;99007.88;5098641;29;20054;-69
2022/12/30 00:40:13;;;;;;;3.75;0.50;;;;;;;9.54;66.13;98996.59;5110447;28;20508;-71
2022/12/30 00:43:09;;;;;;;2.83;0.60;;;;;;;9.24;67.54;99002.78;5097510;29;20566;-71
2022/12/30 00:45:59;;;;;;;1.40;0.50;;;;;;;9.01;68.75;99019.84;5090259;29;20063;-72
2022/12/30 00:58:17;;;;;;;1.58;0.40;;;;;;;9.29;66.88;99024.38;5086006;29;20055;-71
2022/12/30 01:01:06;;;;;;;2.13;0.70;;;;;;;9.33;66.84;99028.41;5105828;29;20522;-73
2022/12/30 01:03:57;;;;;;;3.10;0.60;;;;;;;9.43;67.57;99030.25;5113230;29;20050;-72
2022/12/30 01:06:47;;;;;;;4.00;0.50;;;;;;;9.10;67.83;99027.78;5097725;29;20464;-71
2022/12/30 01:09:37;;;;;;;1.95;0.82;;;;;;;9.27;67.72;99042.22;5104381;28;20059;-73
2022/12/30 01:12:28;;;;;;;2.45;0.60;;;;;;;9.14;68.24;99050.38;5094207;29;20059;-71
2022/12/30 01:15:18;;;;;;;1.65;0.50;;;;;;;9.39;67.47;99043.75;5100120;29;20055;-72
2022/12/30 01:18:08;;;;;;;1.20;0.70;;;;;;;9.40;66.21;99042.81;5090709;29;20056;-75
2022/12/30 01:21:00;;;;;;;0.82;0.45;;;;;;;9.19;67.97;99055.25;5088397;29;20052;-73
2022/12/30 01:23:50;;;;;;;3.92;0.60;;;;;;;8.95;68.69;99039.72;5103484;29;20051;-71
2022/12/30 01:26:40;;;;;;;2.38;0.47;;;;;;;8.87;68.64;99045.66;5099064;29;20056;-73
2022/12/30 01:29:36;;;;;;;1.10;0.45;;;;;;;8.79;69.05;99042.81;5098994;29;20127;-72
2022/12/30 01:32:29;;;;;;;1.10;0.40;;;;;;;8.83;68.60;99056.63;5103873;29;20429;-75
2022/12/30 01:35:19;;;;;;;6.95;0.40;;;;;;;9.20;67.62;99066.66;5108936;29;20521;-74
2022/12/30 01:38:09;;;;;;;3.70;0.47;;;;;;;9.24;68.59;99073.34;5090927;29;20059;-76
2022/12/30 01:40:59;;;;;;;1.42;0.30;;;;;;;9.36;67.67;99073.13;5106693;29;20103;-74
2022/12/30 01:43:49;;;;;;;2.63;0.50;;;;;;;9.35;67.28;99071.47;5098747;29;20586;-74
2022/12/30 01:46:40;;;;;;;1.63;0.57;;;;;;;9.49;67.42;99080.00;5098443;29;20059;-71
2022/12/30 01:49:38;;;;;;;2.22;0.52;;;;;;;9.48;67.25;99078.34;5104473;29;20059;-75
2022/12/30 01:52:28;;;;;;;2.30;0.30;;;;;;;9.48;66.82;99073.06;5097904;29;20142;-72
2022/12/30 01:55:24;;;;;;;1.25;0.40;;;;;;;9.24;67.74;99058.34;5103331;29;20076;-73
2022/12/30 01:58:33;;;;;;;4.22;0.40;;;;;;;9.07;67.60;99037.78;5102896;29;20434;-72
2022/12/30 02:01:27;;;;;;;2.40;0.45;;;;;;;9.40;66.62;99066.63;5102543;29;20066;-72
2022/12/30 02:04:21;;;;;;;0.93;0.55;;;;;;;9.01;67.43;99051.56;5094427;29;20051;-75
2022/12/30 02:07:28;;;;;;;3.80;0.45;;;;;;;8.93;67.95;99063.63;5110281;29;20054;-71
2022/12/30 02:10:21;;;;;;;0.63;0.32;;;;;;;8.56;69.91;99075.66;5102299;29;20066;-72
2022/12/30 02:13:16;;;;;;;0.90;0.40;;;;;;;8.74;69.52;99057.41;5109660;29;20190;-71
2022/12/30 02:16:30;;;;;;;0.52;0.40;;;;;;;8.43;70.45;99066.09;5102770;29;20116;-74
2022/12/30 02:19:23;;;;;;;;;;;;;;;8.48;70.02;99076.31;5102542;29;20056;-74
2022/12/30 02:22:32;;;;;;;0.63;0.32;;;;;;;8.51;69.44;99084.00;5103172;29;19929;-71
2022/12/30 02:25:59;;;;;;;1.23;0.30;;;;;;;8.48;69.15;99084.25;5097476;29;20051;-71
2022/12/30 02:28:55;;;;;;;1.70;0.40;;;;;;;8.29;70.36;99098.09;5087268;29;20494;-72
2022/12/30 02:31:45;;;;;;;0.60;0.40;;;;;;;8.35;70.31;99104.69;5100375;29;20048;-71
2022/12/30 02:34:59;;;;;;;0.85;0.40;;;;;;;8.30;69.74;99110.34;5098849;29;20063;-73
2022/12/30 02:37:58;;;;;;;0.28;0.17;;;;;;;8.44;69.04;99112.72;5090401;29;20052;-73
2022/12/30 02:44:38;;;;;;;2.17;0.57;;;;;;;7.94;68.87;99117.66;5100795;29;20050;-73
2022/12/30 02:47:37;;;;;;;1.38;0.40;;;;;;;7.88;68.56;99123.47;5086542;29;20056;-74
2022/12/30 02:53:41;;;;;;;1.20;0.35;;;;;;;7.75;69.50;99113.03;5093886;29;20058;-70
2022/12/30 02:56:31;;;;;;;2.22;0.50;;;;;;;7.69;68.96;99129.34;5104989;29;20059;-71
2022/12/30 03:06:20;;;;;;;2.45;0.50;;;;;;;7.63;70.16;99143.03;5107152;29;20069;-72
2022/12/30 03:09:16;;;;;;;;;;;;;;;7.51;71.13;99136.91;5096968;29;20051;-73
2022/12/30 03:12:22;;;;;;;1.98;0.73;;;;;;;7.41;71.37;99130.69;5097250;29;19930;-71
2022/12/30 03:15:19;;;;;;;5.57;1.13;;;;;;;7.84;69.69;99111.44;5100217;29;20107;-72
2022/12/30 03:18:11;;;;;;;2.05;1.10;;;;;;;7.98;70.28;99115.63;5100616;29;20054;-71
2022/12/30 03:21:04;;;;;;;2.90;0.50;;;;;;;7.90;69.94;99099.56;5102445;29;20162;-71
2022/12/30 03:27:17;;;;;;;1.13;0.50;;;;;;;7.49;71.00;99125.66;5095821;29;20118;-72
2022/12/30 03:30:08;;;;;;;0.45;0.43;;;;;;;7.54;70.87;99130.56;5095585;29;20051;-72
2022/12/30 03:32:58;;;;;;;1.77;0.60;;;;;;;7.48;71.53;99123.13;5094797;29;20051;-72
2022/12/30 03:36:11;;;;;;;1.20;0.60;;;;;;;7.43;70.70;99120.03;5092812;29;20040;-69
2022/12/30 03:39:07;;;;;;;1.88;0.80;;;;;;;7.59;71.24;99109.09;5109452;29;20060;-71
2022/12/30 03:41:59;;;;;;;2.05;0.73;;;;;;;7.87;70.86;99098.00;5090999;29;20047;-71
2022/12/30 03:44:50;;;;;;;1.48;0.68;;;;;;;7.95;70.44;99108.78;5102457;29;20667;-70
2022/12/30 03:47:41;;;;;;;1.48;0.60;;;;;;;7.94;70.01;99111.53;5097673;29;20048;-70
2022/12/30 03:50:30;;;;;;;2.47;0.63;;;;;;;7.77;70.79;99115.53;5095615;29;20058;-72
2022/12/30 03:53:20;;;;;;;2.38;0.90;;;;;;;7.54;70.93;99122.66;5099249;29;20514;-71
2022/12/30 03:56:10;;;;;;;1.63;0.73;;;;;;;7.17;71.65;99107.06;5091185;29;20160;-71
2022/12/30 03:59:00;;;;;;;2.42;0.73;;;;;;;7.18;72.18;99107.91;5105692;29;20056;-71
2022/12/30 04:01:50;;;;;;;5.38;0.80;;;;;;;7.03;72.57;99109.94;5099587;29;20055;-70
2022/12/30 04:04:40;;;;;;;0.93;0.77;;;;;;;6.89;73.71;99092.56;5096846;29;20067;-71
2022/12/30 04:07:30;;;;;;;2.03;0.90;;;;;;;6.90;73.63;99102.16;5110407;29;20063;-72
2022/12/30 04:10:20;;;;;;;3.92;0.65;;;;;;;7.02;73.15;99106.47;5091360;29;20055;-71
2022/12/30 04:13:10;;;;;;;3.85;0.80;;;;;;;6.79;74.06;99091.59;5103259;29;20052;-72
2022/12/30 04:16:00;;;;;;;1.30;0.80;;;;;;;6.72;74.40;99085.97;5096678;29;20066;-72
2022/12/30 04:18:50;;;;;;;2.15;0.60;;;;;;;6.93;73.60;99090.53;5098381;29;20422;-72
2022/12/30 04:21:40;;;;;;;4.70;1.13;;;;;;;7.02;72.77;99098.56;5096738;29;20091;-72
2022/12/30 04:24:30;;;;;;;5.82;0.82;;;;;;;7.16;72.14;99107.22;5099663;29;20498;-72
2022/12/30 04:27:20;;;;;;;4.03;0.85;;;;;;;7.18;71.16;99110.53;5094321;29;20092;-72
2022/12/30 04:30:11;;;;;;;2.55;0.77;;;;;;;7.19;71.24;99094.63;5095570;29;20492;-72
2022/12/30 04:33:01;;;;;;;4.03;1.02;;;;;;;7.15;71.36;99103.75;5095430;29;20116;-71
2022/12/30 04:35:51;;;;;;;1.77;0.90;;;;;;;7.09;71.33;99092.81;5116962;23;20102;-81
2022/12/30 04:38:42;;;;;;;3.05;0.90;;;;;;;7.23;70.79;99095.22;5116984;28;20141;-82
2022/12/30 04:41:32;;;;;;;1.00;0.70;;;;;;;6.84;72.96;99102.63;5116801;28;20462;-83
2022/12/30 04:44:22;;;;;;;2.65;0.80;;;;;;;6.86;73.11;99100.72;5111386;29;20059;-83
2022/12/30 04:47:12;;;;;;;4.45;0.75;;;;;;;6.98;72.69;99097.09;5109998;28;20058;-83
2022/12/30 04:50:03;;;;;;;1.50;0.80;;;;;;;6.99;72.72;99090.91;5125939;28;20107;-83
2022/12/30 04:52:53;;;;;;;1.88;0.80;;;;;;;7.00;72.11;99108.38;5095333;29;20056;-82
2022/12/30 04:55:43;;;;;;;4.75;0.77;;;;;;;6.84;71.95;99092.06;5109106;29;20118;-82
2022/12/30 04:58:33;;;;;;;1.38;0.70;;;;;;;6.69;73.28;99093.22;5117742;29;20058;-83
2022/12/30 05:01:24;;;;;;;1.08;0.75;;;;;;;6.73;72.50;99102.59;5114790;29;20079;-83
2022/12/30 05:04:14;;;;;;;1.33;0.93;;;;;;;6.76;72.83;99118.19;5120026;29;20539;-82
2022/12/30 05:07:04;;;;;;;2.53;0.90;;;;;;;6.63;72.35;99109.53;5116822;29;20055;-83
2022/12/30 05:09:55;;;;;;;1.25;0.80;;;;;;;6.21;75.03;99112.59;5108622;29;20051;-83
2022/12/30 05:12:45;;;;;;;1.55;0.75;;;;;;;6.69;72.97;99125.72;5113026;29;20058;-83
2022/12/30 05:15:35;;;;;;;1.83;1.10;;;;;;;6.85;72.50;99125.38;5125285;28;20062;-82
2022/12/30 05:18:26;;;;;;;4.22;1.20;;;;;;;6.89;71.22;99118.06;5115282;29;20429;-82
2022/12/30 05:21:16;;;;;;;5.53;2.42;;;;;;;6.25;70.86;99103.53;5104184;29;20114;-83
2022/12/30 05:27:18;;;;;;;0.80;0.60;;;;;;;6.37;71.97;99108.84;5107920;29;20106;-82
2022/12/30 05:30:09;;;;;;;1.20;0.73;;;;;;;6.34;72.65;99091.47;5100448;29;20059;-83
2022/12/30 05:33:00;;;;;;;4.13;1.10;;;;;;;6.35;73.69;99090.50;5118750;29;20056;-83
2022/12/30 05:35:50;;;;;;;2.35;1.00;;;;;;;6.26;72.98;99096.50;5108239;29;20084;-83
2022/12/30 05:38:40;;;;;;;3.67;0.98;;;;;;;6.35;73.29;99087.88;5118722;29;20102;-83
2022/12/30 05:41:31;;;;;;;3.83;1.20;;;;;;;6.62;72.49;99110.47;5104597;29;20139;-82
2022/12/30 05:44:21;;;;;;;2.67;1.23;;;;;;;6.64;72.12;99100.66;5122226;28;20055;-82
2022/12/30 05:47:12;;;;;;;4.60;1.70;;;;;;;6.53;71.34;99104.94;5120323;29;20078;-82
2022/12/30 05:50:02;;;;;;;3.72;1.40;;;;;;;6.62;71.20;99103.41;5112298;29;20051;-82
2022/12/30 05:52:52;;;;;;;1.25;0.70;;;;;;;6.54;72.20;99109.25;5098610;29;20051;-82
2022/12/30 05:55:43;;;;;;;0.75;0.70;;;;;;;6.42;70.86;99080.34;5106926;29;20057;-82
2022/12/30 05:58:33;;;;;;;3.13;0.70;;;;;;;6.37;70.85;99067.53;5130542;28;20509;-82
2022/12/30 06:01:23;;;;;;;1.05;0.80;;;;;;;6.68;70.52;99096.84;5104454;29;20055;-83
2022/12/30 06:04:16;;;;;;;6.90;0.70;;;;;;;6.71;70.64;99122.94;5107095;29;20051;-83
2022/12/30 06:07:07;;;;;;;2.53;0.93;;;;;;;6.65;70.40;99110.22;5090028;29;20501;-82
2022/12/30 06:09:58;;;;;;;2.22;1.00;;;;;;;6.50;71.17;99092.00;5129966;28;20422;-82
2022/12/30 06:12:48;;;;;;;2.67;1.33;;;;;;;6.44;71.24;99095.09;5089539;29;20072;-83
2022/12/30 06:15:38;;;;;;;2.20;1.30;;;;;;;6.56;70.78;99114.41;5103120;29;20055;-82
2022/12/30 06:18:28;;;;;;;2.17;1.20;;;;;;;6.28;69.81;99127.00;5110573;28;20055;-82
2022/12/30 06:21:18;;;;;;;2.38;1.40;;;;;;;6.01;69.03;99121.97;5097459;29;21546;-83
2022/12/30 06:24:09;;;;;;;2.90;1.40;;;;;;;5.79;69.68;99133.16;5101572;29;20055;-83
2022/12/30 06:26:59;;;;;;;2.22;1.45;;;;;;;5.73;70.40;99111.72;5104386;29;20106;-83
2022/12/30 06:29:51;;;;;;;1.88;1.40;;;;;;;5.80;70.08;99115.59;5120701;28;20050;-84
2022/12/30 06:32:41;;;;;;;3.03;1.60;;;;;;;5.73;69.79;99135.41;5109475;29;20604;-83
2022/12/30 06:35:32;;;;;;;2.20;1.42;;;;;;;5.56;70.55;99116.41;5103770;29;20047;-83
2022/12/30 06:38:22;;;;;;;4.20;1.30;;;;;;;5.50;70.46;99102.88;5111670;29;20522;-81
2022/12/30 06:41:12;;;;;;;2.97;1.00;;;;;;;5.42;70.59;99106.03;5092699;29;20051;-81
2022/12/30 06:44:03;;;;;;;3.70;1.27;;;;;;;5.31;69.92;99145.38;5110399;29;20058;-82
2022/12/30 06:46:53;;;;;;;2.30;1.33;;;;;;;5.05;69.71;99124.38;5102822;29;20510;-81
2022/12/30 06:49:43;;;;;;;3.65;1.10;;;;;;;4.96;69.94;99125.00;5105895;29;20054;-82
2022/12/30 06:52:34;;;;;;;1.27;0.82;;;;;;;5.03;69.45;99139.38;5120281;28;20134;-83
2022/12/30 06:55:24;;;;;;;0.52;0.52;;;;;;;4.91;69.33;99132.38;5102830;29;20063;-83
2022/12/30 06:58:23;;;;;;;1.33;0.90;;;;;;;4.85;69.63;99117.84;5122542;28;20620;-83
2022/12/30 07:01:14;;;;;;;1.35;0.70;;;;;;;4.70;69.05;99111.00;5104493;29;20182;-83
2022/12/30 07:04:04;;;;;;;1.65;1.00;;;;;;;5.12;71.25;99125.63;5104267;29;20127;-82
2022/12/30 07:06:54;;;;;;;2.08;1.10;;;;;;;5.01;71.25;99122.91;5109180;29;20728;-84
2022/12/30 07:09:44;;;;;;;1.90;1.27;;;;;;;5.08;70.92;99125.94;5110406;29;20099;-83
2022/12/30 07:12:34;;;;;;;1.88;0.95;;;;;;;4.67;71.04;99083.19;5102901;29;20048;-83
2022/12/30 07:15:25;;;;;;;1.75;1.08;;;;;;;4.69;71.07;99104.06;5105969;29;20050;-84
2022/12/30 07:18:15;;;;;;;2.45;0.90;;;;;;;4.52;70.60;99101.75;5096982;29;20107;-84
2022/12/30 07:21:06;;;;;;;3.30;0.98;;;;;;;4.89;71.77;99142.13;5097229;29;21613;-84
2022/12/30 07:23:56;;;;;;;3.13;1.70;;;;;;;5.09;72.15;99128.47;5111256;29;20494;-83
2022/12/30 07:26:46;;;;;;;2.15;1.25;;;;;;;5.04;72.10;99114.81;5114340;29;20134;-84
2022/12/30 07:29:38;;;;;;;1.90;1.45;;;;;;;5.23;72.27;99129.28;5110534;28;20070;-86
2022/12/30 07:32:28;;;;;;;10.63;4.88;;;;;;;5.31;72.13;99140.97;5095861;29;20131;-85
2022/12/30 07:35:19;;;;;;;29.35;9.38;;;;;;;5.28;72.15;99128.03;5111806;29;20058;-86
2022/12/30 07:38:10;;;;;;;32.40;10.80;;;;;;;5.14;71.93;99097.44;5104392;29;20058;-86
2022/12/30 07:41:00;;;;;;;20.92;7.80;;;;;;;5.34;71.33;99134.66;5102325;29;20128;-87
2022/12/30 07:43:51;;;;;;;24.40;10.35;;;;;;;5.15;71.03;99137.72;5112873;28;20106;-87
2022/12/30 07:46:41;;;;;;;19.75;9.13;;;;;;;5.07;72.39;99140.88;5098754;29;20111;-88
2022/12/30 07:49:31;;;;;;;5.00;2.22;;;;;;;4.97;71.78;99142.47;5112366;28;20044;-86
2022/12/30 07:52:21;;;;;;;3.42;1.63;;;;;;;4.92;71.10;99134.03;5104098;29;20055;-86
2022/12/30 07:55:11;;;;;;;2.40;1.60;;;;;;;4.70;70.88;99121.50;5101309;29;20052;-86
2022/12/30 07:58:01;;;;;;;2.20;1.70;;;;;;;4.67;71.54;99127.00;5110137;29;20088;-87
2022/12/30 08:00:52;;;;;;;7.38;3.47;;;;;;;4.63;71.48;99102.69;5102195;29;20148;-87
2022/12/30 08:03:43;;;;;;;7.40;2.72;;;;;;;4.79;72.30;99131.41;5105415;29;20058;-86
2022/12/30 08:06:34;;;;;;;3.78;2.42;;;;;;;5.03;71.82;99146.44;5117342;29;20059;-85
2022/12/30 08:09:24;;;;;;;3.83;2.22;;;;;;;4.81;70.98;99121.63;5088649;29;20066;-86
2022/12/30 08:12:16;;;;;;;3.65;2.08;;;;;;;4.80;71.40;99108.59;5106152;29;20054;-86
2022/12/30 08:15:07;;;;;;;4.05;2.28;;;;;;;4.84;71.33;99118.81;5092378;29;20079;-85
2022/12/30 08:17:58;;;;;;;2.70;2.00;;;;;;;4.81;71.32;99107.66;5106721;29;20118;-86
2022/12/30 08:20:48;;;;;;;4.20;2.47;;;;;;;4.82;70.95;99118.06;5104655;29;20827;-85
2022/12/30 08:23:39;;;;;;;2.65;1.98;;;;;;;4.97;70.41;99126.69;5114943;29;20529;-84
2022/12/30 08:26:29;;;;;;;5.50;2.40;;;;;;;4.97;71.34;99115.31;5109510;29;20598;-84
2022/12/30 08:29:19;;;;;;;11.02;3.67;;;;;;;5.10;71.44;99114.38;5118672;28;20110;-84
2022/12/30 08:32:10;;;;;;;5.80;3.25;;;;;;;5.14;72.12;99115.00;5117346;29;20140;-85
2022/12/30 08:35:00;;;;;;;4.68;3.13;;;;;;;5.25;71.77;99106.38;5140860;28;20056;-86
2022/12/30 08:37:51;;;;;;;6.57;3.88;;;;;;;5.25;71.78;99111.63;5088806;29;20053;-84
2022/12/30 08:40:41;;;;;;;8.98;3.80;;;;;;;5.37;72.48;99114.25;5115598;29;20186;-84
2022/12/30 08:43:31;;;;;;;5.50;3.17;;;;;;;5.49;72.30;99096.75;5124308;28;20233;-84
2022/12/30 08:46:23;;;;;;;5.82;3.60;;;;;;;5.72;72.01;99112.69;5134711;28;20086;-85
2022/12/30 08:49:14;;;;;;;7.68;3.63;;;;;;;5.74;72.58;99079.22;5097608;29;20066;-85
2022/12/30 08:52:04;;;;;;;6.63;3.70;;;;;;;5.90;72.35;99085.03;5091765;29;20063;-85
2022/12/30 08:54:54;;;;;;;5.28;3.55;;;;;;;5.98;72.24;99092.41;5115185;29;20055;-85
2022/12/30 08:57:45;;;;;;;5.10;3.80;;;;;;;6.18;71.77;99083.88;5106811;29;20130;-85
2022/12/30 09:00:36;;;;;;;9.88;3.40;;;;;;;6.43;72.43;99076.78;5098881;29;20067;-85
2022/12/30 09:03:27;;;;;;;7.10;3.15;;;;;;;6.62;72.99;99081.47;5106170;29;20062;-84
2022/12/30 09:06:21;;;;;;;5.53;3.13;;;;;;;6.55;71.39;99055.59;5095655;29;20059;-84
2022/12/30 09:09:13;;;;;;;13.73;3.95;;;;;;;6.89;72.15;99078.53;5108318;29;20540;-85
2022/12/30 09:12:04;;;;;;;6.88;3.45;;;;;;;7.26;71.50;99079.16;5089793;29;20430;-82
2022/12/30 09:14:54;;;;;;;5.75;2.88;;;;;;;7.23;70.48;99050.38;5104921;29;20525;-82
2022/12/30 09:17:44;;;;;;;5.13;3.40;;;;;;;7.34;70.34;99060.91;5108112;29;20477;-82
2022/12/30 09:20:34;;;;;;;7.50;2.95;;;;;;;7.45;70.87;99053.00;5127388;28;20516;-83
2022/12/30 09:23:25;;;;;;;4.65;2.83;;;;;;;7.59;69.61;99043.97;5111231;29;20509;-82
2022/12/30 09:26:19;;;;;;;5.43;2.55;;;;;;;7.72;69.55;99067.56;5108973;28;20058;-82
2022/12/30 09:29:09;;;;;;;2.70;1.77;;;;;;;7.84;68.87;99050.72;5113267;28;20082;-82
2022/12/30 09:31:59;;;;;;;5.28;2.92;;;;;;;7.99;69.44;99070.59;5107404;29;20063;-82
2022/12/30 09:34:49;;;;;;;3.72;2.60;;;;;;;8.00;69.07;99043.22;5070356;29;20055;-85
2022/12/30 09:37:40;;;;;;;4.80;2.75;;;;;;;8.11;68.79;99073.19;5089707;29;20058;-83
2022/12/30 09:40:55;;;;;;;4.78;2.20;;;;;;;7.93;69.18;99049.97;5111851;29;20514;-83
2022/12/30 09:43:51;;;;;;;7.07;2.33;;;;;;;8.02;69.14;99058.97;5097304;29;20094;-83
2022/12/30 09:47:09;;;;;;;7.72;2.60;;;;;;;8.11;68.76;99026.53;5113635;29;20040;-83
2022/12/30 09:50:02;;;;;;;3.20;2.50;;;;;;;8.28;68.71;99017.19;5090070;29;20170;-83
2022/12/30 09:53:13;;;;;;;3.67;2.50;;;;;;;8.34;68.34;99015.81;5099042;29;20655;-83
2022/12/30 09:56:13;;;;;;;6.95;2.80;;;;;;;8.45;66.97;99000.78;5113453;28;20054;-83
2022/12/30 09:59:11;;;;;;;5.80;2.50;;;;;;;8.39;67.79;99018.94;5122653;28;20157;-84
2022/12/30 10:02:22;;;;;;;6.38;2.33;;;;;;;8.53;67.94;99008.03;5094588;29;20071;-83
2022/12/30 10:05:13;;;;;;;3.78;2.50;;;;;;;8.43;68.44;98989.47;5124862;28;20056;-83
2022/12/30 10:08:33;;;;;;;4.82;2.10;;;;;;;8.47;67.64;98987.41;5107546;29;20046;-84
2022/12/30 10:11:29;;;;;;;2.65;2.00;;;;;;;8.65;68.06;98975.28;5123422;29;20059;-84
2022/12/30 10:14:50;;;;;;;5.25;1.90;;;;;;;8.74;67.71;98963.09;5125083;29;20106;-85
2022/12/30 10:17:59;;;;;;;4.07;2.15;;;;;;;8.59;67.79;98965.22;5096069;29;20043;-86
2022/12/30 10:21:02;;;;;;;2.30;2.00;;;;;;;8.72;67.16;98943.88;5105358;29;20066;-85
2022/12/30 10:24:08;;;;;;;5.03;2.25;;;;;;;8.66;67.07;98910.88;5106442;29;20051;-85
2022/12/30 10:30:54;;;;;;;3.42;2.20;;;;;;;9.01;66.26;98909.59;5123984;28;20082;-86
2022/12/30 10:33:52;;;;;;;5.90;2.47;;;;;;;9.22;65.45;98930.66;5110271;29;20060;-87
2022/12/30 10:37:01;;;;;;;4.50;2.20;;;;;;;9.62;65.48;98942.94;5102653;29;20049;-87
2022/12/30 10:39:52;;;;;;;3.95;2.30;;;;;;;9.65;65.03;98937.38;5124010;28;20152;-86
2022/12/30 10:43:17;;;;;;;5.00;2.10;;;;;;;9.74;65.46;98938.34;5095576;29;20054;-86
2022/12/30 10:46:16;;;;;;;3.05;1.85;;;;;;;9.57;65.07;98921.31;5120604;28;20375;-86
2022/12/30 10:49:19;;;;;;;5.15;1.42;;;;;;;9.52;64.04;98934.16;5138507;23;20043;-70
2022/12/30 10:52:12;;;;;;;4.45;1.30;;;;;;;9.36;64.48;98919.66;5118918;28;20070;-69
2022/12/30 10:55:24;;;;;;;3.17;1.45;;;;;;;9.22;63.92;98916.59;5122369;28;20059;-69
2022/12/30 10:58:33;;;;;;;2.22;1.58;;;;;;;9.65;63.96;98895.00;5123624;28;20086;-69
2022/12/30 11:01:29;;;;;;;3.08;1.42;;;;;;;9.98;63.59;98908.78;5127143;28;20062;-70
2022/12/30 11:04:38;;;;;;;3.08;1.77;;;;;;;9.94;62.92;98891.50;5102127;28;20561;-70
2022/12/30 11:07:28;;;;;;;5.65;1.70;;;;;;;10.24;62.11;98898.41;5121979;28;20071;-70
2022/12/30 11:10:19;;;;;;;5.70;1.73;;;;;;;10.41;62.16;98880.94;5119386;28;20524;-70
2022/12/30 11:16:28;;;;;;;2.92;1.77;;;;;;;10.22;63.01;98884.44;5121592;28;20534;-72
2022/12/30 11:19:23;;;;;;;2.75;1.73;;;;;;;10.34;60.69;98884.16;5118430;28;20051;-70
2022/12/30 11:22:13;;;;;;;;;;;;;;;10.14;62.83;98894.94;5119305;28;20047;-71
2022/12/30 11:25:17;;;;;;;4.03;1.83;;;;;;;10.55;62.29;98883.09;5118268;28;19927;-72
2022/12/30 11:28:14;;;;;;;;;;;;;;;10.85;60.62;98889.09;5121306;28;20061;-70
2022/12/30 11:31:12;;;;;;;2.95;1.83;;;;;;;10.90;60.49;98877.06;5129725;28;19930;-70
2022/12/30 11:34:05;;;;;;;2.00;1.60;;;;;;;10.90;60.54;98889.50;5129510;28;20070;-71
2022/12/30 11:36:55;;;;;;;6.85;2.67;;;;;;;10.97;60.45;98861.41;5124612;28;20517;-70
2022/12/30 11:39:45;;;;;;;2.38;1.70;;;;;;;10.84;60.85;98871.53;5116210;28;20051;-69
2022/12/30 11:42:35;;;;;;;2.38;1.60;;;;;;;10.65;61.17;98865.34;5117046;28;20132;-68
2022/12/30 11:45:25;;;;;;;2.88;1.58;;;;;;;10.47;60.71;98835.31;5114292;28;20142;-68
2022/12/30 11:48:32;;;;;;;3.13;1.23;;;;;;;10.86;60.01;98850.97;5116991;28;20378;-67
2022/12/30 11:51:26;;;;;;;1.20;1.05;;;;;;;11.03;60.21;98855.50;5115725;28;20578;-70
2022/12/30 11:54:21;;;;;;;2.40;0.98;;;;;;;10.85;60.22;98836.06;5113397;28;20057;-70
2022/12/30 11:57:24;;;;;;;4.25;1.13;;;;;;;10.99;60.26;98832.88;5112138;28;20050;-69
2022/12/30 12:00:18;;;;;;;2.40;1.10;;;;;;;10.96;60.93;98834.03;5114844;28;20051;-69
2022/12/30 12:03:17;;;;;;;2.67;1.70;;;;;;;10.90;61.49;98817.88;5124111;28;20062;-69
2022/12/30 12:06:10;;;;;;;2.30;1.55;;;;;;;10.68;62.66;98809.34;5117699;28;20279;-70
2022/12/30 12:09:08;;;;;;;2.40;1.33;;;;;;;10.94;61.86;98806.81;5116563;28;20182;-69
2022/12/30 12:12:04;;;;;;;2.35;1.30;;;;;;;10.93;61.80;98796.38;5113777;28;20055;-69
2022/12/30 12:15:20;;;;;;;1.80;1.30;;;;;;;10.44;62.29;98815.22;5115219;28;20062;-70
2022/12/30 12:18:20;;;;;;;9.68;3.42;;;;;;;10.74;61.38;98808.75;5119591;28;20533;-69
2022/12/30 12:21:14;;;;;;;2.72;1.50;;;;;;;10.81;61.75;98801.88;5118675;28;20079;-70
2022/12/30 12:24:21;;;;;;;2.10;1.13;;;;;;;10.82;62.01;98805.34;5114755;28;20457;-69
2022/12/30 12:27:17;;;;;;;2.60;1.25;;;;;;;11.03;61.63;98810.38;5118599;28;20074;-70
2022/12/30 12:30:12;;;;;;;2.55;1.30;;;;;;;11.41;60.73;98811.03;5112277;28;20111;-70
2022/12/30 12:33:32;;;;;;;1.45;1.10;;;;;;;11.03;60.43;98763.47;5120919;28;20079;-70
2022/12/30 12:36:27;;;;;;;2.78;1.30;;;;;;;11.28;60.21;98787.53;5061587;28;20178;-70
2022/12/30 12:39:30;;;;;;;3.50;1.40;;;;;;;11.22;61.36;98783.69;5119775;28;20062;-70
2022/12/30 12:43:05;;;;;;;2.88;1.20;;;;;;;11.13;60.94;98773.16;5113793;28;20564;-70
2022/12/30 12:46:43;;;;;;;2.15;1.25;;;;;;;11.03;61.24;98774.06;5110576;28;20986;-70
2022/12/30 12:49:43;;;;;;;1.38;1.15;;;;;;;11.27;60.51;98772.63;5120637;28;20054;-70
2022/12/30 12:52:42;;;;;;;3.22;1.50;;;;;;;11.25;60.67;98778.06;5111419;28;20055;-70
2022/12/30 12:55:51;;;;;;;1.83;1.00;;;;;;;11.49;59.97;98781.91;5111243;28;20055;-70
2022/12/30 12:59:08;;;;;;;1.83;1.00;;;;;;;11.51;59.34;98774.63;5123796;28;20051;-70
2022/12/30 13:02:27;;;;;;;3.92;1.17;;;;;;;11.16;59.62;98735.69;5122791;28;20051;-70
2022/12/30 13:05:41;;;;;;;2.45;1.23;;;;;;;10.89;60.91;98752.53;5115685;28;20062;-70
2022/12/30 13:08:55;;;;;;;3.95;1.45;;;;;;;10.87;59.93;98754.53;5111355;28;20043;-70
2022/12/30 13:11:54;;;;;;;1.80;1.15;;;;;;;10.94;59.73;98737.84;5113262;28;20651;-71
2022/12/30 13:14:51;;;;;;;1.83;1.20;;;;;;;10.78;60.10;98729.72;5122447;28;20043;-70
2022/12/30 13:17:44;;;;;;;1.10;0.88;;;;;;;10.79;60.11;98718.13;5120027;28;20050;-71
2022/12/30 13:20:50;;;;;;;1.42;1.00;;;;;;;10.73;61.19;98719.59;5122390;28;20091;-69
2022/12/30 13:23:48;;;;;;;1.92;1.45;;;;;;;10.57;60.13;98674.38;5118268;28;20113;-69
2022/12/30 13:26:38;;;;;;;1.40;1.08;;;;;;;10.62;61.00;98690.63;5104047;28;20426;-69
2022/12/30 13:29:34;;;;;;;2.08;0.90;;;;;;;10.62;60.24;98684.50;5113356;28;24481;-69
2022/12/30 13:32:37;;;;;;;0.93;0.60;;;;;;;10.69;59.55;98667.81;5111490;28;20055;-68
2022/12/30 13:35:54;;;;;;;1.17;0.80;;;;;;;10.59;61.02;98664.41;5117839;28;20089;-69
2022/12/30 13:39:26;;;;;;;2.17;1.20;;;;;;;10.66;59.90;98665.50;5119624;28;20130;-71
2022/12/30 13:42:38;;;;;;;1.52;0.57;;;;;;;10.52;60.88;98669.50;5113964;28;20145;-70
2022/12/30 13:45:42;;;;;;;3.78;1.20;;;;;;;11.11;59.48;98667.16;5116910;28;20446;-70
2022/12/30 13:48:33;;;;;;;1.88;1.00;;;;;;;11.22;59.59;98661.59;5119606;28;20054;-70
2022/12/30 13:51:26;;;;;;;3.28;0.77;;;;;;;11.42;59.59;98672.00;5114392;28;20498;-70
2022/12/30 13:54:18;;;;;;;1.42;1.00;;;;;;;11.48;58.92;98645.66;5113015;28;20059;-70
2022/12/30 13:57:13;;;;;;;1.65;1.05;;;;;;;11.58;58.19;98639.41;5121692;28;20047;-69
2022/12/30 14:00:38;;;;;;;0.90;0.80;;;;;;;11.43;59.03;98647.16;5120046;28;20521;-68
2022/12/30 14:03:36;;;;;;;2.42;0.85;;;;;;;11.25;59.31;98621.47;5135066;28;20543;-68
2022/12/30 14:06:39;;;;;;;3.47;0.80;;;;;;;11.15;59.51;98639.31;5130849;28;20659;-69
2022/12/30 14:09:35;;;;;;;0.95;0.70;;;;;;;11.01;59.79;98629.28;5115584;28;20066;-68
2022/12/30 14:12:30;;;;;;;2.50;1.00;;;;;;;11.46;58.96;98646.81;5125446;28;20055;-69
2022/12/30 14:15:30;;;;;;;2.03;1.25;;;;;;;11.58;58.73;98637.56;5124287;28;20055;-69
2022/12/30 14:18:50;;;;;;;5.72;0.70;;;;;;;11.60;58.58;98632.94;5127260;28;20572;-68
2022/12/30 14:21:50;;;;;;;4.65;1.85;;;;;;;11.39;58.96;98629.84;5116937;28;20138;-68
2022/12/30 14:24:40;;;;;;;2.47;1.13;;;;;;;11.40;59.08;98629.69;5118935;28;20086;-70
2022/12/30 14:27:46;;;;;;;1.30;1.00;;;;;;;11.43;59.44;98620.59;5117517;28;20066;-71
2022/12/30 14:30:36;;;;;;;1.67;0.98;;;;;;;11.48;59.42;98628.91;5121010;28;20054;-70
2022/12/30 14:33:26;;;;;;;1.98;1.10;;;;;;;11.64;59.23;98628.16;5119715;28;20074;-67
2022/12/30 14:36:19;;;;;;;2.40;1.17;;;;;;;11.48;60.47;98629.72;5119299;28;20066;-68
2022/12/30 14:39:15;;;;;;;1.83;1.10;;;;;;;11.49;61.23;98630.59;5132073;28;20054;-68
2022/12/30 14:42:21;;;;;;;2.72;1.00;;;;;;;11.52;60.24;98633.75;5130277;28;20061;-69
2022/12/30 14:45:21;;;;;;;2.38;1.02;;;;;;;11.27;60.82;98627.47;5122048;28;20138;-69
2022/12/30 14:48:12;;;;;;;3.75;1.38;;;;;;;11.27;60.77;98624.00;5110454;28;20143;-69
2022/12/30 14:51:02;;;;;;;3.38;1.40;;;;;;;11.13;60.95;98598.88;5123800;28;20047;-68